createdAt,value
2018-03-11T00:02:23.815Z,31.43
2018-03-11T00:04:51.994Z,32.17
2018-03-11T00:07:28.402Z,32.73
2018-03-11T00:09:57.342Z,33.00
2018-03-11T00:12:25.518Z,32.20
2018-03-11T00:14:54.451Z,33.50
2018-03-11T00:17:44.920Z,30.30
2018-03-11T00:20:13.084Z,31.23
2018-03-11T00:22:41.233Z,31.20
2018-03-11T00:25:09.397Z,36.20
2018-03-11T00:27:59.577Z,36.33
2018-03-11T00:30:28.512Z,35.03
2018-03-11T00:32:56.661Z,33.30
2018-03-11T00:35:30.307Z,31.70
2018-03-11T00:37:58.450Z,35.93
2018-03-11T00:40:26.594Z,34.10
2018-03-11T00:42:54.751Z,34.90
2018-03-11T00:45:23.658Z,35.40
2018-03-11T00:47:51.850Z,35.07
2018-03-11T00:50:19.998Z,34.37
2018-03-11T00:52:48.966Z,36.87
2018-03-11T00:55:17.136Z,33.40
2018-03-11T00:57:45.346Z,35.63
2018-03-11T01:00:13.535Z,38.10
2018-03-11T01:02:41.795Z,37.27
2018-03-11T01:05:10.038Z,37.90
2018-03-11T01:07:38.259Z,34.97
2018-03-11T01:10:06.471Z,35.77
2018-03-11T01:12:34.695Z,39.30
2018-03-11T01:15:02.937Z,31.90
2018-03-11T01:17:31.136Z,39.23
2018-03-11T01:20:00.055Z,37.70
2018-03-11T01:22:28.191Z,34.83
2018-03-11T01:24:57.110Z,36.10
2018-03-11T01:27:25.255Z,40.03
2018-03-11T01:29:54.180Z,37.37
2018-03-11T01:32:22.351Z,39.67
2018-03-11T01:34:50.514Z,42.23
2018-03-11T01:37:19.626Z,35.97
2018-03-11T01:39:47.839Z,48.03
2018-03-11T01:42:15.976Z,45.57
2018-03-11T01:44:44.114Z,42.17
2018-03-11T01:47:13.039Z,41.97
2018-03-11T01:49:41.191Z,42.83
2018-03-11T01:52:09.348Z,39.80
2018-03-11T01:54:38.252Z,36.77
2018-03-11T01:57:06.416Z,39.23
2018-03-11T01:59:34.640Z,40.13
2018-03-11T02:02:02.892Z,36.83
2018-03-11T02:04:31.860Z,37.87
2018-03-11T02:07:00.904Z,36.83
2018-03-11T02:09:29.059Z,41.53
2018-03-11T02:11:57.263Z,36.27
2018-03-11T02:14:25.404Z,39.20
2018-03-11T02:16:54.517Z,43.17
2018-03-11T02:19:22.678Z,37.40
2018-03-11T02:21:50.834Z,37.73
2018-03-11T02:24:18.972Z,40.27
2018-03-11T02:26:48.134Z,37.67
2018-03-11T02:29:16.296Z,40.50
2018-03-11T02:31:44.455Z,36.17
2018-03-11T02:34:12.599Z,40.43
2018-03-11T02:36:43.560Z,42.20
2018-03-11T02:39:11.727Z,40.73
2018-03-11T02:41:39.900Z,44.43
2018-03-11T02:44:08.114Z,44.10
2018-03-11T02:46:40.956Z,43.80
2018-03-11T02:49:09.207Z,42.73
2018-03-11T02:51:38.166Z,45.53
2018-03-11T02:54:06.403Z,45.70
2018-03-11T02:56:46.761Z,42.33
2018-03-11T02:59:14.987Z,44.00
2018-03-11T03:01:43.181Z,47.27
2018-03-11T03:04:12.225Z,46.87
2018-03-11T03:06:40.462Z,50.70
2018-03-11T03:09:09.418Z,54.57
2018-03-11T03:11:37.579Z,51.70
2018-03-11T03:14:05.766Z,46.53
2018-03-11T03:16:33.928Z,49.03
2018-03-11T03:19:02.133Z,48.80
2018-03-11T03:21:31.098Z,41.43
2018-03-11T03:23:59.304Z,32.03
2018-03-11T03:26:35.870Z,29.80
2018-03-11T03:29:04.825Z,25.73
2018-03-11T03:31:32.993Z,26.07
2018-03-11T03:34:01.134Z,23.63
2018-03-11T03:36:31.295Z,26.17
2018-03-11T03:38:59.429Z,25.57
2018-03-11T03:41:27.586Z,25.27
2018-03-11T03:43:56.486Z,24.20
2018-03-11T03:46:25.418Z,21.53
2018-03-11T03:48:53.562Z,22.50
2018-03-11T03:51:21.730Z,25.60
2018-03-11T03:53:49.874Z,23.97
2018-03-11T03:56:28.137Z,19.63
2018-03-11T03:58:56.277Z,21.93
2018-03-11T04:01:25.200Z,19.47
2018-03-11T04:03:53.338Z,26.00
2018-03-11T04:06:40.578Z,16.10
2018-03-11T04:09:08.720Z,23.00
2018-03-11T04:11:37.641Z,18.73
2018-03-11T04:14:05.778Z,19.80
2018-03-11T04:16:33.934Z,22.43
2018-03-11T04:19:02.076Z,26.90
2018-03-11T04:21:30.229Z,87.73
2018-03-11T04:23:58.373Z,69.27
2018-03-11T04:26:28.258Z,54.50
2018-03-11T04:28:56.398Z,61.43
2018-03-11T04:31:24.534Z,42.83
2018-03-11T04:33:53.466Z,37.93
2018-03-11T04:36:21.613Z,23.40
2018-03-11T04:38:50.536Z,18.83
2018-03-11T04:41:18.670Z,39.37
2018-03-11T04:43:47.599Z,52.77
2018-03-11T04:46:17.731Z,55.03
2018-03-11T04:48:45.886Z,63.50
2018-03-11T04:51:14.034Z,43.30
2018-03-11T04:53:42.966Z,38.13
2018-03-11T04:56:14.714Z,26.20
2018-03-11T04:58:43.637Z,26.33
2018-03-11T05:01:11.770Z,43.07
2018-03-11T05:03:40.685Z,52.90
2018-03-11T05:06:17.554Z,43.87
2018-03-11T05:08:45.709Z,56.30
2018-03-11T05:11:13.862Z,60.63
2018-03-11T05:13:42.792Z,79.13
2018-03-11T05:16:12.904Z,68.47
2018-03-11T05:18:41.066Z,59.27
2018-03-11T05:21:09.270Z,59.77
2018-03-11T05:23:37.499Z,53.20
2018-03-11T05:26:16.234Z,53.03
2018-03-11T05:28:44.406Z,41.67
2018-03-11T05:31:12.552Z,51.50
2018-03-11T05:33:41.466Z,48.83
2018-03-11T05:36:14.730Z,52.83
2018-03-11T05:38:43.641Z,50.13
2018-03-11T05:41:11.804Z,50.70
2018-03-11T05:43:40.705Z,57.83
2018-03-11T05:46:22.924Z,46.03
2018-03-11T05:48:51.062Z,48.77
2018-03-11T05:51:19.987Z,45.67
2018-03-11T05:53:48.123Z,44.57
2018-03-11T05:56:29.774Z,43.90
2018-03-11T05:58:57.912Z,39.43
2018-03-11T06:01:26.077Z,27.27
2018-03-11T06:03:54.214Z,26.87
2018-03-11T06:06:22.368Z,27.73
2018-03-11T06:08:50.504Z,28.37
2018-03-11T06:11:18.657Z,26.30
2018-03-11T06:13:47.557Z,30.17
2018-03-11T06:16:19.257Z,29.60
2018-03-11T06:18:47.391Z,31.77
2018-03-11T06:21:15.566Z,30.40
2018-03-11T06:23:43.709Z,34.83
2018-03-11T06:26:13.801Z,33.37
2018-03-11T06:28:41.938Z,32.57
2018-03-11T06:31:10.103Z,29.97
2018-03-11T06:33:38.251Z,32.87
2018-03-11T06:36:16.730Z,36.57
2018-03-11T06:38:44.862Z,50.17
2018-03-11T06:41:13.033Z,39.53
2018-03-11T06:43:41.206Z,41.63
2018-03-11T06:46:09.370Z,32.03
2018-03-11T06:48:38.318Z,31.27
2018-03-11T06:51:06.471Z,30.57
2018-03-11T06:53:34.627Z,35.13
2018-03-11T06:56:04.785Z,29.57
2018-03-11T06:58:32.938Z,30.97
2018-03-11T07:01:01.097Z,33.40
2018-03-11T07:03:29.246Z,29.43
2018-03-11T07:06:11.038Z,29.33
2018-03-11T07:08:39.966Z,32.20
2018-03-11T07:11:08.114Z,26.87
2018-03-11T07:13:36.270Z,27.80
2018-03-11T07:16:13.965Z,27.60
2018-03-11T07:18:42.983Z,25.50
2018-03-11T07:21:11.223Z,26.97
2018-03-11T07:23:39.467Z,24.80
2018-03-11T07:26:09.665Z,22.70
2018-03-11T07:28:37.882Z,21.10
2018-03-11T07:31:06.099Z,21.70
2018-03-11T07:33:34.352Z,24.10
2018-03-11T07:36:05.272Z,23.00
2018-03-11T07:38:33.448Z,21.33
2018-03-11T07:41:01.713Z,23.83
2018-03-11T07:43:29.955Z,21.93
2018-03-11T07:46:06.351Z,22.83
2018-03-11T07:48:34.499Z,21.60
2018-03-11T07:51:02.673Z,22.57
2018-03-11T07:53:30.826Z,22.73
2018-03-11T07:56:06.617Z,21.20
2018-03-11T07:58:34.776Z,19.30
2018-03-11T08:01:02.939Z,18.73
2018-03-11T08:03:31.133Z,20.33
2018-03-11T08:05:59.313Z,17.47
2018-03-11T08:08:27.486Z,17.50
2018-03-11T08:10:55.762Z,15.73
2018-03-11T08:13:23.980Z,15.87
2018-03-11T08:15:52.978Z,16.50
2018-03-11T08:18:21.949Z,17.37
2018-03-11T08:20:50.961Z,14.87
2018-03-11T08:23:19.114Z,18.17
2018-03-11T08:25:49.236Z,16.90
2018-03-11T08:28:18.155Z,16.97
2018-03-11T08:30:46.322Z,17.60
2018-03-11T08:33:15.265Z,18.07
2018-03-11T08:35:47.646Z,16.33
2018-03-11T08:38:15.803Z,16.13
2018-03-11T08:40:43.977Z,14.80
2018-03-11T08:43:13.050Z,15.23
2018-03-11T08:45:48.733Z,15.93
2018-03-11T08:48:16.874Z,15.90
2018-03-11T08:50:45.037Z,15.17
2018-03-11T08:53:13.182Z,15.47
2018-03-11T08:56:02.274Z,14.00
2018-03-11T08:58:30.422Z,14.27
2018-03-11T09:00:59.357Z,14.17
2018-03-11T09:03:27.509Z,16.53
2018-03-11T09:05:57.700Z,13.60
2018-03-11T09:08:26.621Z,14.33
2018-03-11T09:10:55.507Z,13.47
2018-03-11T09:13:23.681Z,14.50
2018-03-11T09:15:51.831Z,13.17
2018-03-11T09:18:20.096Z,12.83
2018-03-11T09:20:48.237Z,12.87
2018-03-11T09:23:16.409Z,12.90
2018-03-11T09:25:52.046Z,15.07
2018-03-11T09:28:20.255Z,12.50
2018-03-11T09:30:48.424Z,12.50
2018-03-11T09:33:16.590Z,12.17
2018-03-11T09:36:02.113Z,11.30
2018-03-11T09:38:30.282Z,11.13
2018-03-11T09:40:59.219Z,11.97
2018-03-11T09:43:28.187Z,11.63
2018-03-11T09:46:07.744Z,10.70
2018-03-11T09:48:35.949Z,10.07
2018-03-11T09:51:04.091Z,9.53
2018-03-11T09:53:32.259Z,8.97
2018-03-11T09:56:01.443Z,8.27
2018-03-11T09:58:29.707Z,8.70
2018-03-11T10:00:57.882Z,7.57
2018-03-11T10:03:26.825Z,7.53
2018-03-11T10:05:58.728Z,6.83
2018-03-11T10:08:27.690Z,6.80
2018-03-11T10:10:55.858Z,7.07
2018-03-11T10:13:24.021Z,6.70
2018-03-11T10:15:52.240Z,6.43
2018-03-11T10:18:21.239Z,6.10
2018-03-11T10:20:49.478Z,6.20
2018-03-11T10:23:17.722Z,6.27
2018-03-11T10:25:53.894Z,6.97
2018-03-11T10:28:22.086Z,6.40
2018-03-11T10:30:50.276Z,6.20
2018-03-11T10:33:19.298Z,6.00
2018-03-11T10:35:54.654Z,5.37
2018-03-11T10:38:23.607Z,5.50
2018-03-11T10:40:52.611Z,6.10
2018-03-11T10:43:21.628Z,5.97
2018-03-11T10:45:49.875Z,5.53
2018-03-11T10:48:18.815Z,6.60
2018-03-11T10:50:47.065Z,4.87
2018-03-11T10:53:15.184Z,6.73
2018-03-11T10:55:44.334Z,5.97
2018-03-11T10:58:12.514Z,6.10
2018-03-11T11:00:43.503Z,5.80
2018-03-11T11:03:16.638Z,6.70
2018-03-11T11:05:47.890Z,4.13
2018-03-11T11:08:16.102Z,4.63
2018-03-11T11:10:44.291Z,4.83
2018-03-11T11:13:12.511Z,4.53
2018-03-11T11:15:53.602Z,3.97
2018-03-11T11:18:21.865Z,3.83
2018-03-11T11:20:50.856Z,3.30
2018-03-11T11:23:19.075Z,4.93
2018-03-11T11:26:11.286Z,3.43
2018-03-11T11:28:39.553Z,3.30
2018-03-11T11:31:07.828Z,3.80
2018-03-11T11:33:35.994Z,3.13
2018-03-11T11:36:27.290Z,3.07
2018-03-11T11:38:55.453Z,3.60
2018-03-11T11:41:24.375Z,3.33
2018-03-11T11:43:52.564Z,2.63
2018-03-11T11:46:30.577Z,3.50
2018-03-11T11:48:58.773Z,2.17
2018-03-11T11:51:26.922Z,2.60
2018-03-11T11:53:55.058Z,2.37
2018-03-11T11:56:25.217Z,2.40
2018-03-11T11:58:53.362Z,3.53
2018-03-11T12:01:21.529Z,2.30
2018-03-11T12:03:49.665Z,3.23
2018-03-11T12:06:17.826Z,3.40
2018-03-11T12:08:45.988Z,2.33
2018-03-11T12:11:14.164Z,2.23
2018-03-11T12:13:42.302Z,5.63
2018-03-11T12:16:12.472Z,3.17
2018-03-11T12:18:40.610Z,1.90
2018-03-11T12:21:08.779Z,3.03
2018-03-11T12:23:36.963Z,2.00
2018-03-11T12:26:05.194Z,2.30
2018-03-11T12:28:34.157Z,2.27
2018-03-11T12:31:02.422Z,1.70
2018-03-11T12:33:30.610Z,2.20
2018-03-11T12:36:13.930Z,2.20
2018-03-11T12:38:42.106Z,1.70
2018-03-11T12:41:10.342Z,1.80
2018-03-11T12:43:38.493Z,2.13
2018-03-11T12:46:11.917Z,2.00
2018-03-11T12:48:40.061Z,1.70
2018-03-11T12:51:08.228Z,1.53
2018-03-11T12:53:37.134Z,2.47
2018-03-11T12:56:12.819Z,2.27
2018-03-11T12:58:40.958Z,2.23
2018-03-11T13:01:09.151Z,1.10
2018-03-11T13:03:37.294Z,1.30
2018-03-11T13:06:13.842Z,1.50
2018-03-11T13:08:41.978Z,1.60
2018-03-11T13:11:10.150Z,1.67
2018-03-11T13:13:38.312Z,1.30
2018-03-11T13:16:06.453Z,2.37
2018-03-11T13:18:35.394Z,1.73
2018-03-11T13:21:09.072Z,1.57
2018-03-11T13:23:37.298Z,1.93
2018-03-11T13:26:42.820Z,1.67
2018-03-11T13:29:10.978Z,1.80
2018-03-11T13:31:39.122Z,2.20
2018-03-11T13:34:25.010Z,2.00
2018-03-11T13:36:53.157Z,2.50
2018-03-11T13:39:39.128Z,1.70
2018-03-11T13:42:07.287Z,1.67
2018-03-11T13:44:35.440Z,1.67
2018-03-11T13:47:09.906Z,2.10
2018-03-11T13:49:41.950Z,1.67
2018-03-11T13:52:27.870Z,1.70
2018-03-11T13:54:56.810Z,2.17
2018-03-11T14:00:44.053Z,1.50
2018-03-11T14:03:13.330Z,1.60
2018-03-11T14:05:41.502Z,1.77
2018-03-11T14:08:11.009Z,2.55
2018-03-11T14:10:39.173Z,1.62
2018-03-11T14:13:08.162Z,1.65
2018-03-11T14:15:37.110Z,1.50
2018-03-11T14:18:05.391Z,1.70
2018-03-11T14:20:43.786Z,1.67
2018-03-11T14:23:11.954Z,2.58
2018-03-11T14:25:40.351Z,2.35
2018-03-11T14:28:08.579Z,1.45
2018-03-11T14:30:36.767Z,1.50
2018-03-11T14:33:04.999Z,1.70
2018-03-11T14:35:51.283Z,1.60
2018-03-11T14:38:19.470Z,1.60
2018-03-11T14:40:48.432Z,1.65
2018-03-11T14:43:16.589Z,1.45
2018-03-11T14:45:45.713Z,1.40
2018-03-11T14:48:13.878Z,2.20
2018-03-11T14:50:42.071Z,1.97
2018-03-11T14:53:10.230Z,1.90
2018-03-11T14:55:42.498Z,1.55
2018-03-11T14:58:10.645Z,2.95
2018-03-11T15:00:39.586Z,1.70
2018-03-11T15:03:07.746Z,2.20
2018-03-11T15:05:46.550Z,1.00
2018-03-11T15:08:14.718Z,1.08
2018-03-11T15:10:42.877Z,1.35
2018-03-11T15:13:11.021Z,1.10
2018-03-11T15:15:56.126Z,1.57
2018-03-11T15:18:24.275Z,1.47
2018-03-11T15:20:52.422Z,1.93
2018-03-11T15:23:21.350Z,1.30
2018-03-11T15:26:03.128Z,1.40
2018-03-11T15:28:31.322Z,1.67
2018-03-11T15:30:59.463Z,1.23
2018-03-11T15:33:28.412Z,2.50
2018-03-11T15:36:04.756Z,1.40
2018-03-11T15:38:32.918Z,1.33
2018-03-11T15:41:01.078Z,1.67
2018-03-11T15:43:29.244Z,1.70
2018-03-11T15:46:03.190Z,6.23
2018-03-11T15:48:31.350Z,3.70
2018-03-11T15:50:59.506Z,2.30
2018-03-11T15:53:27.670Z,2.40
2018-03-11T15:56:00.177Z,1.70
2018-03-11T15:58:28.338Z,2.23
2018-03-11T16:00:56.482Z,3.20
2018-03-11T16:03:25.442Z,5.83
2018-03-11T16:06:03.334Z,4.33
2018-03-11T16:08:31.518Z,2.97
2018-03-11T16:10:59.653Z,3.20
2018-03-11T16:13:27.841Z,2.97
2018-03-11T16:16:00.367Z,2.93
2018-03-11T16:18:29.307Z,3.47
2018-03-11T16:20:57.566Z,3.70
2018-03-11T16:23:25.791Z,5.27
2018-03-11T16:25:54.947Z,3.50
2018-03-11T16:28:23.194Z,2.80
2018-03-11T16:30:52.230Z,2.30
2018-03-11T16:33:21.182Z,2.77
2018-03-11T16:35:49.434Z,3.40
2018-03-11T16:38:17.646Z,2.00
2018-03-11T16:40:45.887Z,1.93
2018-03-11T16:43:14.117Z,2.87
2018-03-11T16:45:53.656Z,2.53
2018-03-11T16:48:22.777Z,3.50
2018-03-11T16:50:50.978Z,4.17
2018-03-11T16:53:19.906Z,4.10
2018-03-11T16:55:48.193Z,3.40
2018-03-11T16:58:16.360Z,2.87
2018-03-11T17:00:44.551Z,4.07
2018-03-11T17:03:12.735Z,2.43
2018-03-11T17:06:00.258Z,3.30
2018-03-11T17:08:28.458Z,5.20
2018-03-11T17:10:56.708Z,3.60
2018-03-11T17:13:24.902Z,3.30
2018-03-11T17:15:56.570Z,3.33
2018-03-11T17:18:25.521Z,3.23
2018-03-11T17:20:53.678Z,3.30
2018-03-11T17:23:21.961Z,2.83
2018-03-11T17:25:50.190Z,2.67
2018-03-11T17:28:19.170Z,2.57
2018-03-11T17:30:47.345Z,2.47
2018-03-11T17:33:15.552Z,2.50
2018-03-11T17:35:46.776Z,2.00
2018-03-11T17:38:15.751Z,3.73
2018-03-11T17:40:43.903Z,2.43
2018-03-11T17:43:12.185Z,4.23
2018-03-11T17:45:42.327Z,9.07
2018-03-11T17:48:11.334Z,10.03
2018-03-11T17:50:40.313Z,3.03
2018-03-11T17:53:09.288Z,4.80
2018-03-11T17:55:38.400Z,5.27
2018-03-11T17:58:06.630Z,2.20
2018-03-11T18:00:34.810Z,2.20
2018-03-11T18:03:03.014Z,2.47
2018-03-11T18:05:31.182Z,3.03
2018-03-11T18:07:59.434Z,2.50
2018-03-11T18:10:27.593Z,3.57
2018-03-11T18:12:56.510Z,3.43
2018-03-11T18:15:25.614Z,2.77
2018-03-11T18:17:53.831Z,2.90
2018-03-11T18:20:21.978Z,5.03
2018-03-11T18:22:50.118Z,2.80
2018-03-11T18:25:18.290Z,3.53
2018-03-11T18:27:46.455Z,3.40
2018-03-11T18:30:14.610Z,3.27
2018-03-11T18:32:42.753Z,3.40
2018-03-11T18:35:11.678Z,3.93
2018-03-11T18:37:50.140Z,6.13
2018-03-11T18:40:18.300Z,7.23
2018-03-11T18:42:46.448Z,6.73
2018-03-11T18:45:14.634Z,6.73
2018-03-11T18:47:42.771Z,6.27
2018-03-11T18:50:10.931Z,4.73
2018-03-11T18:52:39.066Z,5.10
2018-03-11T18:55:07.235Z,4.10
2018-03-11T18:57:35.414Z,3.67
2018-03-11T19:00:03.578Z,4.23
2018-03-11T19:02:31.714Z,3.30
2018-03-11T19:04:59.880Z,4.10
2018-03-11T19:07:31.607Z,7.67
2018-03-11T19:09:59.881Z,4.67
2018-03-11T19:12:28.071Z,6.77
2018-03-11T19:14:57.110Z,6.80
2018-03-11T19:17:26.262Z,4.00
2018-03-11T19:19:55.430Z,4.47
2018-03-11T19:22:23.600Z,4.30
2018-03-11T19:24:51.811Z,5.03
2018-03-11T19:27:21.794Z,5.43
2018-03-11T19:29:50.050Z,5.50
2018-03-11T19:32:18.251Z,6.67
2018-03-11T19:34:46.442Z,6.07
2018-03-11T19:37:19.680Z,10.90
2018-03-11T19:39:48.632Z,10.27
2018-03-11T19:42:17.619Z,6.30
2018-03-11T19:44:46.619Z,4.77
2018-03-11T19:47:30.600Z,4.93
2018-03-11T19:49:58.879Z,4.90
2018-03-11T19:52:27.068Z,6.50
2018-03-11T19:54:55.246Z,5.87
2018-03-11T19:57:31.868Z,4.47
2018-03-11T20:00:00.159Z,9.43
2018-03-11T20:02:28.318Z,7.13
2018-03-11T20:04:56.467Z,7.03
2018-03-11T20:07:24.647Z,5.33
2018-03-11T20:09:53.615Z,4.20
2018-03-11T20:12:22.238Z,9.43
2018-03-11T20:14:51.150Z,7.20
2018-03-11T20:17:26.422Z,4.00
2018-03-11T20:19:54.589Z,4.27
2018-03-11T20:22:22.767Z,3.70
2018-03-11T20:24:50.937Z,4.60
2018-03-11T20:27:19.151Z,4.53
2018-03-11T20:29:48.070Z,3.60
2018-03-11T20:32:16.234Z,3.70
2018-03-11T20:34:44.459Z,4.07
2018-03-11T20:37:12.646Z,4.30
2018-03-11T20:39:40.893Z,5.03
2018-03-11T20:42:09.164Z,4.13
2018-03-11T20:44:37.355Z,6.27
2018-03-11T20:47:08.943Z,4.10
2018-03-11T20:49:37.915Z,4.23
2018-03-11T20:52:06.171Z,4.03
2018-03-11T20:54:34.382Z,4.27
2018-03-11T20:57:07.026Z,4.30
2018-03-11T20:59:35.218Z,4.63
2018-03-11T21:02:03.384Z,5.47
2018-03-11T21:04:31.527Z,5.70
2018-03-11T21:07:08.886Z,5.13
2018-03-11T21:09:37.794Z,11.40
2018-03-11T21:12:05.961Z,9.63
2018-03-11T21:14:34.142Z,5.60
2018-03-11T21:17:02.349Z,5.00
2018-03-11T21:19:30.527Z,5.73
2018-03-11T21:21:58.782Z,21.70
2018-03-11T21:24:27.000Z,54.43
2018-03-11T21:26:56.975Z,41.17
2018-03-11T21:29:25.251Z,20.50
2018-03-11T21:31:53.487Z,17.93
2018-03-11T21:34:21.686Z,11.73
2018-03-11T21:36:49.903Z,14.83
2018-03-11T21:39:18.164Z,16.90
2018-03-11T21:41:46.383Z,16.10
2018-03-11T21:44:14.600Z,17.97
2018-03-11T21:46:43.772Z,13.13
2018-03-11T21:49:12.026Z,12.53
2018-03-11T21:51:40.259Z,11.80
2018-03-11T21:54:08.494Z,11.87
2018-03-11T21:56:37.723Z,10.23
2018-03-11T21:59:05.931Z,13.63
2018-03-11T22:01:34.183Z,12.13
2018-03-11T22:04:02.451Z,11.17
2018-03-11T22:06:35.434Z,8.60
2018-03-11T22:09:03.727Z,9.17
2018-03-11T22:11:31.927Z,7.93
2018-03-11T22:14:00.135Z,6.70
2018-03-11T22:16:36.218Z,7.23
2018-03-11T22:19:04.447Z,8.27
2018-03-11T22:21:32.710Z,6.70
2018-03-11T22:24:01.739Z,4.70
2018-03-11T22:26:29.895Z,5.20
2018-03-11T22:28:58.142Z,5.93
2018-03-11T22:31:26.322Z,7.80
2018-03-11T22:33:54.536Z,9.27
2018-03-11T22:36:37.091Z,6.53
2018-03-11T22:39:05.263Z,6.33
2018-03-11T22:41:33.447Z,7.77
2018-03-11T22:44:01.646Z,8.57
2018-03-11T22:46:29.870Z,8.73
2018-03-11T22:48:58.077Z,8.50
2018-03-11T22:51:27.102Z,8.13
2018-03-11T22:53:55.287Z,9.13
2018-03-11T22:56:35.839Z,8.23
2018-03-11T22:59:04.112Z,6.77
2018-03-11T23:01:32.479Z,8.50
2018-03-11T23:04:00.731Z,8.13
2018-03-11T23:06:29.009Z,6.43
2018-03-11T23:08:57.195Z,6.70
2018-03-11T23:11:25.458Z,8.27
2018-03-11T23:13:53.676Z,11.37
2018-03-11T23:16:22.763Z,12.10
2018-03-11T23:19:08.777Z,14.33
2018-03-11T23:21:36.980Z,7.97
2018-03-11T23:24:05.150Z,13.27
2018-03-11T23:26:46.231Z,10.10
2018-03-11T23:29:14.373Z,7.77
2018-03-11T23:31:42.533Z,7.83
2018-03-11T23:34:10.679Z,7.00
2018-03-11T23:36:40.598Z,7.63
2018-03-11T23:39:08.851Z,9.17
2018-03-11T23:41:37.014Z,10.43
2018-03-11T23:44:05.189Z,6.67
2018-03-11T23:46:35.395Z,12.00
2018-03-11T23:49:03.563Z,8.63
2018-03-11T23:51:31.831Z,10.33
2018-03-11T23:54:00.059Z,7.03
2018-03-11T23:56:44.210Z,5.37
2018-03-11T23:59:13.163Z,5.70
